sensor_id;sensor_type;location;lat;lon;timestamp;P1;durP1;ratioP1;P2;durP2;ratioP2
39020;SDS011;25188;51.958;5.842;2024-02-14T00:01:33;7.73;;;2.93;;
39020;SDS011;25188;51.958;5.842;2024-02-14T00:04:02;5.43;;;2.50;;
39020;SDS011;25188;51.958;5.842;2024-02-14T00:06:28;5.50;;;2.53;;
39020;SDS011;25188;51.958;5.842;2024-02-14T00:08:55;7.23;;;3.00;;
39020;SDS011;25188;51.958;5.842;2024-02-14T00:11:20;6.00;;;3.67;;
39020;SDS011;25188;51.958;5.842;2024-02-14T00:13:46;3.73;;;2.57;;
39020;SDS011;25188;51.958;5.842;2024-02-14T00:16:11;5.07;;;3.20;;
39020;SDS011;25188;51.958;5.842;2024-02-14T00:18:37;10.10;;;3.13;;
39020;SDS011;25188;51.958;5.842;2024-02-14T00:21:02;6.70;;;3.10;;
39020;SDS011;25188;51.958;5.842;2024-02-14T00:23:28;5.80;;;3.73;;
39020;SDS011;25188;51.958;5.842;2024-02-14T00:25:54;5.93;;;3.10;;
39020;SDS011;25188;51.958;5.842;2024-02-14T00:28:19;7.80;;;3.40;;
39020;SDS011;25188;51.958;5.842;2024-02-14T00:30:45;7.23;;;3.53;;
39020;SDS011;25188;51.958;5.842;2024-02-14T00:33:11;5.47;;;3.23;;
39020;SDS011;25188;51.958;5.842;2024-02-14T00:35:36;9.37;;;3.53;;
39020;SDS011;25188;51.958;5.842;2024-02-14T00:38:02;8.53;;;3.87;;
39020;SDS011;25188;51.958;5.842;2024-02-14T00:40:28;5.33;;;2.93;;
39020;SDS011;25188;51.958;5.842;2024-02-14T00:42:53;5.67;;;3.50;;
39020;SDS011;25188;51.958;5.842;2024-02-14T00:45:19;5.27;;;3.23;;
39020;SDS011;25188;51.958;5.842;2024-02-14T00:47:45;5.33;;;3.50;;
39020;SDS011;25188;51.958;5.842;2024-02-14T00:50:10;6.60;;;3.43;;
39020;SDS011;25188;51.958;5.842;2024-02-14T00:52:38;8.50;;;4.70;;
39020;SDS011;25188;51.958;5.842;2024-02-14T00:55:04;7.07;;;4.53;;
39020;SDS011;25188;51.958;5.842;2024-02-14T00:57:30;5.80;;;3.97;;
39020;SDS011;25188;51.958;5.842;2024-02-14T00:59:56;7.53;;;4.10;;
39020;SDS011;25188;51.958;5.842;2024-02-14T01:02:22;7.03;;;4.20;;
39020;SDS011;25188;51.958;5.842;2024-02-14T01:04:47;10.10;;;5.30;;
39020;SDS011;25188;51.958;5.842;2024-02-14T01:07:13;10.37;;;5.40;;
39020;SDS011;25188;51.958;5.842;2024-02-14T01:09:39;7.60;;;4.70;;
39020;SDS011;25188;51.958;5.842;2024-02-14T01:12:04;7.87;;;4.27;;
39020;SDS011;25188;51.958;5.842;2024-02-14T01:14:31;9.33;;;4.90;;
39020;SDS011;25188;51.958;5.842;2024-02-14T01:16:56;7.90;;;4.73;;
39020;SDS011;25188;51.958;5.842;2024-02-14T01:19:22;8.93;;;5.30;;
39020;SDS011;25188;51.958;5.842;2024-02-14T01:21:49;9.17;;;4.90;;
39020;SDS011;25188;51.958;5.842;2024-02-14T01:24:15;7.80;;;4.67;;
39020;SDS011;25188;51.958;5.842;2024-02-14T01:26:41;9.47;;;4.87;;
39020;SDS011;25188;51.958;5.842;2024-02-14T01:29:07;12.57;;;5.50;;
39020;SDS011;25188;51.958;5.842;2024-02-14T01:31:33;8.43;;;5.20;;
39020;SDS011;25188;51.958;5.842;2024-02-14T01:33:59;8.67;;;5.23;;
39020;SDS011;25188;51.958;5.842;2024-02-14T01:36:27;8.73;;;5.10;;
39020;SDS011;25188;51.958;5.842;2024-02-14T01:38:56;10.33;;;5.30;;
39020;SDS011;25188;51.958;5.842;2024-02-14T01:41:21;8.50;;;5.20;;
39020;SDS011;25188;51.958;5.842;2024-02-14T01:43:47;9.93;;;5.20;;
39020;SDS011;25188;51.958;5.842;2024-02-14T01:46:13;9.40;;;5.37;;
39020;SDS011;25188;51.958;5.842;2024-02-14T01:48:39;10.00;;;4.97;;
39020;SDS011;25188;51.958;5.842;2024-02-14T01:51:07;9.47;;;5.33;;
39020;SDS011;25188;51.958;5.842;2024-02-14T01:53:35;9.83;;;5.57;;
39020;SDS011;25188;51.958;5.842;2024-02-14T01:56:03;8.83;;;5.13;;
39020;SDS011;25188;51.958;5.842;2024-02-14T01:58:30;8.20;;;5.27;;
39020;SDS011;25188;51.958;5.842;2024-02-14T02:00:55;8.60;;;4.57;;
39020;SDS011;25188;51.958;5.842;2024-02-14T02:03:23;10.27;;;5.73;;
39020;SDS011;25188;51.958;5.842;2024-02-14T02:05:50;12.13;;;5.90;;
39020;SDS011;25188;51.958;5.842;2024-02-14T02:08:19;9.60;;;5.43;;
39020;SDS011;25188;51.958;5.842;2024-02-14T02:10:45;8.27;;;5.43;;
39020;SDS011;25188;51.958;5.842;2024-02-14T02:13:11;8.70;;;5.40;;
39020;SDS011;25188;51.958;5.842;2024-02-14T02:15:37;11.10;;;5.93;;
39020;SDS011;25188;51.958;5.842;2024-02-14T02:18:03;10.27;;;5.70;;
39020;SDS011;25188;51.958;5.842;2024-02-14T02:20:31;10.27;;;6.70;;
39020;SDS011;25188;51.958;5.842;2024-02-14T02:22:57;8.87;;;6.17;;
39020;SDS011;25188;51.958;5.842;2024-02-14T02:25:23;10.20;;;6.13;;
39020;SDS011;25188;51.958;5.842;2024-02-14T02:27:51;14.87;;;6.77;;
39020;SDS011;25188;51.958;5.842;2024-02-14T02:30:18;9.23;;;6.00;;
39020;SDS011;25188;51.958;5.842;2024-02-14T02:32:44;11.03;;;5.90;;
39020;SDS011;25188;51.958;5.842;2024-02-14T02:35:10;9.40;;;5.13;;
39020;SDS011;25188;51.958;5.842;2024-02-14T02:37:35;10.67;;;5.77;;
39020;SDS011;25188;51.958;5.842;2024-02-14T02:40:01;10.20;;;6.40;;
39020;SDS011;25188;51.958;5.842;2024-02-14T02:42:26;12.13;;;6.80;;
39020;SDS011;25188;51.958;5.842;2024-02-14T02:44:54;11.20;;;6.73;;
39020;SDS011;25188;51.958;5.842;2024-02-14T02:47:19;10.20;;;6.47;;
39020;SDS011;25188;51.958;5.842;2024-02-14T02:49:45;11.80;;;6.50;;
39020;SDS011;25188;51.958;5.842;2024-02-14T02:52:11;12.23;;;6.63;;
39020;SDS011;25188;51.958;5.842;2024-02-14T02:54:38;11.17;;;6.00;;
39020;SDS011;25188;51.958;5.842;2024-02-14T02:57:08;9.93;;;6.30;;
39020;SDS011;25188;51.958;5.842;2024-02-14T02:59:35;11.20;;;6.43;;
39020;SDS011;25188;51.958;5.842;2024-02-14T03:02:01;12.00;;;6.63;;
39020;SDS011;25188;51.958;5.842;2024-02-14T03:04:27;11.70;;;7.33;;
39020;SDS011;25188;51.958;5.842;2024-02-14T03:06:54;11.13;;;6.60;;
39020;SDS011;25188;51.958;5.842;2024-02-14T03:09:20;10.53;;;7.23;;
39020;SDS011;25188;51.958;5.842;2024-02-14T03:11:47;15.40;;;7.80;;
39020;SDS011;25188;51.958;5.842;2024-02-14T03:14:14;11.43;;;6.93;;
39020;SDS011;25188;51.958;5.842;2024-02-14T03:16:40;12.43;;;7.80;;
39020;SDS011;25188;51.958;5.842;2024-02-14T03:19:06;11.27;;;6.93;;
39020;SDS011;25188;51.958;5.842;2024-02-14T03:21:31;11.03;;;6.73;;
39020;SDS011;25188;51.958;5.842;2024-02-14T03:24:01;8.93;;;6.20;;
39020;SDS011;25188;51.958;5.842;2024-02-14T03:26:30;10.60;;;7.67;;
39020;SDS011;25188;51.958;5.842;2024-02-14T03:28:58;13.73;;;7.87;;
39020;SDS011;25188;51.958;5.842;2024-02-14T03:31:31;12.87;;;8.43;;
39020;SDS011;25188;51.958;5.842;2024-02-14T03:33:57;11.43;;;8.53;;
39020;SDS011;25188;51.958;5.842;2024-02-14T03:36:22;13.73;;;7.90;;
39020;SDS011;25188;51.958;5.842;2024-02-14T03:38:49;17.03;;;9.63;;
39020;SDS011;25188;51.958;5.842;2024-02-14T03:41:15;16.10;;;8.60;;
39020;SDS011;25188;51.958;5.842;2024-02-14T03:43:41;15.87;;;9.83;;
39020;SDS011;25188;51.958;5.842;2024-02-14T03:46:07;15.60;;;10.03;;
39020;SDS011;25188;51.958;5.842;2024-02-14T03:48:33;14.23;;;9.00;;
39020;SDS011;25188;51.958;5.842;2024-02-14T03:50:58;13.97;;;9.67;;
39020;SDS011;25188;51.958;5.842;2024-02-14T03:53:25;14.67;;;9.33;;
39020;SDS011;25188;51.958;5.842;2024-02-14T03:55:51;16.63;;;10.23;;
39020;SDS011;25188;51.958;5.842;2024-02-14T03:58:18;18.20;;;9.67;;
39020;SDS011;25188;51.958;5.842;2024-02-14T04:00:47;16.90;;;10.63;;
39020;SDS011;25188;51.958;5.842;2024-02-14T04:03:17;17.27;;;11.23;;
39020;SDS011;25188;51.958;5.842;2024-02-14T04:05:43;18.60;;;11.70;;
39020;SDS011;25188;51.958;5.842;2024-02-14T04:08:10;18.00;;;10.93;;
39020;SDS011;25188;51.958;5.842;2024-02-14T04:10:36;19.23;;;12.30;;
39020;SDS011;25188;51.958;5.842;2024-02-14T04:13:03;15.90;;;10.20;;
39020;SDS011;25188;51.958;5.842;2024-02-14T04:15:29;17.87;;;12.30;;
39020;SDS011;25188;51.958;5.842;2024-02-14T04:17:56;20.67;;;12.20;;
39020;SDS011;25188;51.958;5.842;2024-02-14T04:20:22;17.47;;;11.10;;
39020;SDS011;25188;51.958;5.842;2024-02-14T04:22:47;18.13;;;11.90;;
39020;SDS011;25188;51.958;5.842;2024-02-14T04:25:13;17.07;;;11.87;;
39020;SDS011;25188;51.958;5.842;2024-02-14T04:27:40;20.00;;;12.13;;
39020;SDS011;25188;51.958;5.842;2024-02-14T04:30:05;17.03;;;12.47;;
39020;SDS011;25188;51.958;5.842;2024-02-14T04:32:31;18.23;;;12.33;;
39020;SDS011;25188;51.958;5.842;2024-02-14T04:34:58;19.53;;;13.27;;
39020;SDS011;25188;51.958;5.842;2024-02-14T04:37:24;19.10;;;12.33;;
39020;SDS011;25188;51.958;5.842;2024-02-14T04:39:49;24.97;;;13.20;;
39020;SDS011;25188;51.958;5.842;2024-02-14T04:42:15;17.63;;;12.90;;
39020;SDS011;25188;51.958;5.842;2024-02-14T04:44:41;17.90;;;11.83;;
39020;SDS011;25188;51.958;5.842;2024-02-14T04:47:06;19.80;;;14.13;;
39020;SDS011;25188;51.958;5.842;2024-02-14T04:49:34;24.07;;;14.63;;
39020;SDS011;25188;51.958;5.842;2024-02-14T04:52:01;20.60;;;13.57;;
39020;SDS011;25188;51.958;5.842;2024-02-14T04:54:26;22.67;;;14.37;;
39020;SDS011;25188;51.958;5.842;2024-02-14T04:56:53;22.57;;;14.53;;
39020;SDS011;25188;51.958;5.842;2024-02-14T04:59:19;23.30;;;13.47;;
39020;SDS011;25188;51.958;5.842;2024-02-14T05:01:45;19.70;;;12.57;;
39020;SDS011;25188;51.958;5.842;2024-02-14T05:04:11;18.30;;;12.40;;
39020;SDS011;25188;51.958;5.842;2024-02-14T05:06:38;18.57;;;13.10;;
39020;SDS011;25188;51.958;5.842;2024-02-14T05:09:04;18.53;;;12.93;;
39020;SDS011;25188;51.958;5.842;2024-02-14T05:11:31;22.33;;;13.73;;
39020;SDS011;25188;51.958;5.842;2024-02-14T05:13:56;21.70;;;13.60;;
39020;SDS011;25188;51.958;5.842;2024-02-14T05:16:22;20.90;;;13.13;;
39020;SDS011;25188;51.958;5.842;2024-02-14T05:18:48;22.43;;;14.07;;
39020;SDS011;25188;51.958;5.842;2024-02-14T05:21:14;18.47;;;12.40;;
39020;SDS011;25188;51.958;5.842;2024-02-14T05:23:40;20.67;;;12.93;;
39020;SDS011;25188;51.958;5.842;2024-02-14T05:26:05;18.30;;;12.97;;
39020;SDS011;25188;51.958;5.842;2024-02-14T05:28:31;18.17;;;12.93;;
39020;SDS011;25188;51.958;5.842;2024-02-14T05:30:58;22.23;;;14.23;;
39020;SDS011;25188;51.958;5.842;2024-02-14T05:33:24;19.20;;;13.90;;
39020;SDS011;25188;51.958;5.842;2024-02-14T05:35:51;16.60;;;12.10;;
39020;SDS011;25188;51.958;5.842;2024-02-14T05:38:17;18.23;;;11.83;;
39020;SDS011;25188;51.958;5.842;2024-02-14T05:40:46;18.50;;;11.97;;
39020;SDS011;25188;51.958;5.842;2024-02-14T05:43:12;17.43;;;12.77;;
39020;SDS011;25188;51.958;5.842;2024-02-14T05:45:38;15.73;;;12.10;;
39020;SDS011;25188;51.958;5.842;2024-02-14T05:48:04;15.17;;;11.47;;
39020;SDS011;25188;51.958;5.842;2024-02-14T05:50:30;18.90;;;12.00;;
39020;SDS011;25188;51.958;5.842;2024-02-14T05:52:56;17.37;;;12.37;;
39020;SDS011;25188;51.958;5.842;2024-02-14T05:55:24;15.93;;;10.73;;
39020;SDS011;25188;51.958;5.842;2024-02-14T05:57:50;18.43;;;11.63;;
39020;SDS011;25188;51.958;5.842;2024-02-14T06:00:17;17.77;;;12.33;;
39020;SDS011;25188;51.958;5.842;2024-02-14T06:02:44;17.57;;;11.80;;
39020;SDS011;25188;51.958;5.842;2024-02-14T06:05:10;17.07;;;13.43;;
39020;SDS011;25188;51.958;5.842;2024-02-14T06:07:38;18.67;;;13.57;;
39020;SDS011;25188;51.958;5.842;2024-02-14T06:10:05;20.07;;;11.80;;
39020;SDS011;25188;51.958;5.842;2024-02-14T06:12:32;16.10;;;11.77;;
39020;SDS011;25188;51.958;5.842;2024-02-14T06:14:58;15.17;;;11.63;;
39020;SDS011;25188;51.958;5.842;2024-02-14T06:17:23;16.13;;;11.90;;
39020;SDS011;25188;51.958;5.842;2024-02-14T06:19:51;18.10;;;12.03;;
39020;SDS011;25188;51.958;5.842;2024-02-14T06:22:17;19.33;;;13.30;;
39020;SDS011;25188;51.958;5.842;2024-02-14T06:24:43;16.67;;;12.07;;
39020;SDS011;25188;51.958;5.842;2024-02-14T06:27:08;19.03;;;13.70;;
39020;SDS011;25188;51.958;5.842;2024-02-14T06:29:34;20.37;;;12.47;;
39020;SDS011;25188;51.958;5.842;2024-02-14T06:32:00;22.47;;;13.10;;
39020;SDS011;25188;51.958;5.842;2024-02-14T06:34:25;16.77;;;13.00;;
39020;SDS011;25188;51.958;5.842;2024-02-14T06:36:53;18.23;;;13.60;;
39020;SDS011;25188;51.958;5.842;2024-02-14T06:39:19;17.90;;;13.37;;
39020;SDS011;25188;51.958;5.842;2024-02-14T06:41:45;15.97;;;12.40;;
39020;SDS011;25188;51.958;5.842;2024-02-14T06:44:12;21.73;;;12.73;;
39020;SDS011;25188;51.958;5.842;2024-02-14T06:46:38;16.80;;;11.70;;
39020;SDS011;25188;51.958;5.842;2024-02-14T06:49:04;16.77;;;11.60;;
39020;SDS011;25188;51.958;5.842;2024-02-14T06:51:29;20.17;;;12.63;;
39020;SDS011;25188;51.958;5.842;2024-02-14T06:53:55;16.97;;;11.70;;
39020;SDS011;25188;51.958;5.842;2024-02-14T06:56:21;13.63;;;9.80;;
39020;SDS011;25188;51.958;5.842;2024-02-14T06:58:47;16.33;;;12.63;;
39020;SDS011;25188;51.958;5.842;2024-02-14T07:01:18;15.00;;;11.23;;
39020;SDS011;25188;51.958;5.842;2024-02-14T07:03:48;20.30;;;12.40;;
39020;SDS011;25188;51.958;5.842;2024-02-14T07:06:15;16.43;;;11.87;;
39020;SDS011;25188;51.958;5.842;2024-02-14T07:08:41;19.23;;;11.77;;
39020;SDS011;25188;51.958;5.842;2024-02-14T07:11:06;17.67;;;12.30;;
39020;SDS011;25188;51.958;5.842;2024-02-14T07:13:33;20.63;;;12.43;;
39020;SDS011;25188;51.958;5.842;2024-02-14T07:16:00;19.50;;;13.00;;
39020;SDS011;25188;51.958;5.842;2024-02-14T07:18:26;16.20;;;11.40;;
39020;SDS011;25188;51.958;5.842;2024-02-14T07:20:52;19.17;;;12.33;;
39020;SDS011;25188;51.958;5.842;2024-02-14T07:23:20;15.67;;;11.13;;
39020;SDS011;25188;51.958;5.842;2024-02-14T07:25:46;16.03;;;11.57;;
39020;SDS011;25188;51.958;5.842;2024-02-14T07:28:12;16.07;;;11.13;;
39020;SDS011;25188;51.958;5.842;2024-02-14T07:30:38;15.43;;;10.40;;
39020;SDS011;25188;51.958;5.842;2024-02-14T07:33:03;15.37;;;11.27;;
39020;SDS011;25188;51.958;5.842;2024-02-14T07:35:29;20.73;;;12.83;;
39020;SDS011;25188;51.958;5.842;2024-02-14T07:37:55;18.63;;;13.30;;
39020;SDS011;25188;51.958;5.842;2024-02-14T07:40:21;20.80;;;13.40;;
39020;SDS011;25188;51.958;5.842;2024-02-14T07:42:47;18.37;;;13.30;;
39020;SDS011;25188;51.958;5.842;2024-02-14T07:45:13;19.85;;;12.48;;
39020;SDS011;25188;51.958;5.842;2024-02-14T07:47:39;20.00;;;13.23;;
39020;SDS011;25188;51.958;5.842;2024-02-14T07:50:06;21.40;;;13.03;;
39020;SDS011;25188;51.958;5.842;2024-02-14T07:52:32;24.00;;;13.03;;
39020;SDS011;25188;51.958;5.842;2024-02-14T07:54:58;22.73;;;14.50;;
39020;SDS011;25188;51.958;5.842;2024-02-14T07:57:24;18.77;;;13.20;;
39020;SDS011;25188;51.958;5.842;2024-02-14T07:59:50;23.47;;;14.23;;
39020;SDS011;25188;51.958;5.842;2024-02-14T08:02:19;20.05;;;12.70;;
39020;SDS011;25188;51.958;5.842;2024-02-14T08:04:46;20.30;;;14.45;;
39020;SDS011;25188;51.958;5.842;2024-02-14T08:07:12;19.05;;;13.52;;
39020;SDS011;25188;51.958;5.842;2024-02-14T08:09:38;20.55;;;13.85;;
39020;SDS011;25188;51.958;5.842;2024-02-14T08:12:04;19.90;;;12.23;;
39020;SDS011;25188;51.958;5.842;2024-02-14T08:14:30;19.10;;;13.60;;
39020;SDS011;25188;51.958;5.842;2024-02-14T08:16:56;23.15;;;13.65;;
39020;SDS011;25188;51.958;5.842;2024-02-14T08:19:22;17.48;;;12.85;;
39020;SDS011;25188;51.958;5.842;2024-02-14T08:21:48;17.95;;;13.52;;
39020;SDS011;25188;51.958;5.842;2024-02-14T08:24:13;21.13;;;13.80;;
39020;SDS011;25188;51.958;5.842;2024-02-14T08:26:39;18.92;;;12.35;;
39020;SDS011;25188;51.958;5.842;2024-02-14T08:29:05;21.45;;;12.23;;
39020;SDS011;25188;51.958;5.842;2024-02-14T08:31:30;19.70;;;12.90;;
39020;SDS011;25188;51.958;5.842;2024-02-14T08:33:57;17.83;;;10.98;;
39020;SDS011;25188;51.958;5.842;2024-02-14T08:36:24;13.87;;;10.27;;
39020;SDS011;25188;51.958;5.842;2024-02-14T08:38:50;17.70;;;12.25;;
39020;SDS011;25188;51.958;5.842;2024-02-14T08:41:16;16.15;;;11.23;;
39020;SDS011;25188;51.958;5.842;2024-02-14T08:43:43;17.15;;;10.63;;
39020;SDS011;25188;51.958;5.842;2024-02-14T08:46:09;14.57;;;10.07;;
39020;SDS011;25188;51.958;5.842;2024-02-14T08:48:36;17.35;;;10.85;;
39020;SDS011;25188;51.958;5.842;2024-02-14T08:51:06;14.82;;;10.65;;
39020;SDS011;25188;51.958;5.842;2024-02-14T08:53:34;16.90;;;12.00;;
39020;SDS011;25188;51.958;5.842;2024-02-14T08:56:00;17.90;;;11.82;;
39020;SDS011;25188;51.958;5.842;2024-02-14T08:58:26;13.45;;;9.90;;
39020;SDS011;25188;51.958;5.842;2024-02-14T09:00:51;14.00;;;10.15;;
39020;SDS011;25188;51.958;5.842;2024-02-14T09:03:18;17.48;;;10.98;;
39020;SDS011;25188;51.958;5.842;2024-02-14T09:05:45;16.02;;;10.48;;
39020;SDS011;25188;51.958;5.842;2024-02-14T09:08:11;17.40;;;12.20;;
39020;SDS011;25188;51.958;5.842;2024-02-14T09:10:38;14.80;;;10.35;;
39020;SDS011;25188;51.958;5.842;2024-02-14T09:13:03;13.73;;;9.15;;
39020;SDS011;25188;51.958;5.842;2024-02-14T09:15:32;15.00;;;10.15;;
39020;SDS011;25188;51.958;5.842;2024-02-14T09:17:58;18.02;;;11.40;;
39020;SDS011;25188;51.958;5.842;2024-02-14T09:20:25;16.95;;;10.48;;
39020;SDS011;25188;51.958;5.842;2024-02-14T09:22:51;13.82;;;8.82;;
39020;SDS011;25188;51.958;5.842;2024-02-14T09:25:19;16.50;;;9.77;;
39020;SDS011;25188;51.958;5.842;2024-02-14T09:27:44;13.23;;;9.13;;
39020;SDS011;25188;51.958;5.842;2024-02-14T09:30:12;14.57;;;8.95;;
39020;SDS011;25188;51.958;5.842;2024-02-14T09:32:38;15.07;;;8.85;;
39020;SDS011;25188;51.958;5.842;2024-02-14T09:35:04;12.38;;;8.32;;
39020;SDS011;25188;51.958;5.842;2024-02-14T09:37:31;14.45;;;8.45;;
39020;SDS011;25188;51.958;5.842;2024-02-14T09:39:57;14.25;;;9.10;;
39020;SDS011;25188;51.958;5.842;2024-02-14T09:42:47;15.50;;;9.45;;
39020;SDS011;25188;51.958;5.842;2024-02-14T09:45:15;19.77;;;11.13;;
39020;SDS011;25188;51.958;5.842;2024-02-14T09:47:41;16.67;;;11.43;;
39020;SDS011;25188;51.958;5.842;2024-02-14T09:50:08;16.48;;;11.02;;
39020;SDS011;25188;51.958;5.842;2024-02-14T09:52:35;19.50;;;11.52;;
39020;SDS011;25188;51.958;5.842;2024-02-14T09:55:03;18.35;;;10.63;;
39020;SDS011;25188;51.958;5.842;2024-02-14T09:57:30;14.90;;;9.75;;
39020;SDS011;25188;51.958;5.842;2024-02-14T09:59:57;13.77;;;10.75;;
39020;SDS011;25188;51.958;5.842;2024-02-14T10:02:25;17.55;;;10.90;;
39020;SDS011;25188;51.958;5.842;2024-02-14T10:04:50;18.13;;;11.98;;
39020;SDS011;25188;51.958;5.842;2024-02-14T10:07:16;14.45;;;10.55;;
39020;SDS011;25188;51.958;5.842;2024-02-14T10:09:42;20.42;;;11.85;;
39020;SDS011;25188;51.958;5.842;2024-02-14T10:12:08;20.42;;;11.70;;
39020;SDS011;25188;51.958;5.842;2024-02-14T10:14:35;22.15;;;11.40;;
39020;SDS011;25188;51.958;5.842;2024-02-14T10:17:02;23.90;;;12.45;;
39020;SDS011;25188;51.958;5.842;2024-02-14T10:19:30;19.75;;;11.20;;
39020;SDS011;25188;51.958;5.842;2024-02-14T10:21:56;15.25;;;10.18;;
39020;SDS011;25188;51.958;5.842;2024-02-14T10:24:28;17.88;;;11.80;;
39020;SDS011;25188;51.958;5.842;2024-02-14T10:26:54;14.52;;;10.07;;
39020;SDS011;25188;51.958;5.842;2024-02-14T10:29:22;16.25;;;9.07;;
39020;SDS011;25188;51.958;5.842;2024-02-14T10:31:51;18.00;;;10.25;;
39020;SDS011;25188;51.958;5.842;2024-02-14T10:34:18;20.40;;;9.93;;
39020;SDS011;25188;51.958;5.842;2024-02-14T10:36:45;15.70;;;10.30;;
39020;SDS011;25188;51.958;5.842;2024-02-14T10:39:11;18.27;;;10.75;;
39020;SDS011;25188;51.958;5.842;2024-02-14T10:41:37;17.63;;;9.10;;
39020;SDS011;25188;51.958;5.842;2024-02-14T10:44:03;13.55;;;8.93;;
39020;SDS011;25188;51.958;5.842;2024-02-14T10:46:33;14.63;;;8.30;;
39020;SDS011;25188;51.958;5.842;2024-02-14T10:49:02;16.20;;;9.02;;
39020;SDS011;25188;51.958;5.842;2024-02-14T10:51:32;13.27;;;9.38;;
39020;SDS011;25188;51.958;5.842;2024-02-14T10:54:10;13.82;;;9.00;;
39020;SDS011;25188;51.958;5.842;2024-02-14T10:56:41;17.15;;;8.60;;
39020;SDS011;25188;51.958;5.842;2024-02-14T10:59:08;12.00;;;8.13;;
39020;SDS011;25188;51.958;5.842;2024-02-14T11:01:36;14.93;;;9.40;;
39020;SDS011;25188;51.958;5.842;2024-02-14T11:04:03;14.00;;;8.23;;
39020;SDS011;25188;51.958;5.842;2024-02-14T11:06:29;15.25;;;8.35;;
39020;SDS011;25188;51.958;5.842;2024-02-14T11:09:00;14.40;;;8.25;;
39020;SDS011;25188;51.958;5.842;2024-02-14T11:11:31;15.90;;;8.60;;
39020;SDS011;25188;51.958;5.842;2024-02-14T11:13:57;16.40;;;8.63;;
39020;SDS011;25188;51.958;5.842;2024-02-14T11:16:25;16.55;;;8.82;;
39020;SDS011;25188;51.958;5.842;2024-02-14T11:18:53;13.93;;;8.35;;
39020;SDS011;25188;51.958;5.842;2024-02-14T11:21:19;13.23;;;8.10;;
39020;SDS011;25188;51.958;5.842;2024-02-14T11:23:54;12.88;;;7.85;;
39020;SDS011;25188;51.958;5.842;2024-02-14T11:26:20;15.07;;;7.93;;
39020;SDS011;25188;51.958;5.842;2024-02-14T11:28:48;11.90;;;7.18;;
39020;SDS011;25188;51.958;5.842;2024-02-14T11:31:16;14.88;;;7.40;;
39020;SDS011;25188;51.958;5.842;2024-02-14T11:33:42;14.90;;;8.90;;
39020;SDS011;25188;51.958;5.842;2024-02-14T11:36:11;11.63;;;7.68;;
39020;SDS011;25188;51.958;5.842;2024-02-14T11:38:40;15.93;;;8.15;;
39020;SDS011;25188;51.958;5.842;2024-02-14T11:41:06;11.77;;;7.25;;
39020;SDS011;25188;51.958;5.842;2024-02-14T11:43:32;13.32;;;7.63;;
39020;SDS011;25188;51.958;5.842;2024-02-14T11:45:57;12.90;;;7.70;;
39020;SDS011;25188;51.958;5.842;2024-02-14T11:48:23;13.45;;;7.13;;
39020;SDS011;25188;51.958;5.842;2024-02-14T11:50:49;14.10;;;6.85;;
39020;SDS011;25188;51.958;5.842;2024-02-14T11:53:17;14.65;;;6.95;;
39020;SDS011;25188;51.958;5.842;2024-02-14T11:55:46;11.88;;;7.22;;
39020;SDS011;25188;51.958;5.842;2024-02-14T11:58:12;11.00;;;7.10;;
39020;SDS011;25188;51.958;5.842;2024-02-14T12:00:40;13.25;;;7.20;;
39020;SDS011;25188;51.958;5.842;2024-02-14T12:03:14;13.23;;;7.22;;
39020;SDS011;25188;51.958;5.842;2024-02-14T12:05:42;11.60;;;7.00;;
39020;SDS011;25188;51.958;5.842;2024-02-14T12:08:09;15.27;;;7.45;;
39020;SDS011;25188;51.958;5.842;2024-02-14T12:10:35;14.23;;;7.65;;
39020;SDS011;25188;51.958;5.842;2024-02-14T12:13:09;13.80;;;7.55;;
39020;SDS011;25188;51.958;5.842;2024-02-14T12:15:41;10.38;;;6.35;;
39020;SDS011;25188;51.958;5.842;2024-02-14T12:18:11;12.05;;;6.38;;
39020;SDS011;25188;51.958;5.842;2024-02-14T12:20:40;10.05;;;5.95;;
39020;SDS011;25188;51.958;5.842;2024-02-14T12:23:13;11.27;;;6.10;;
39020;SDS011;25188;51.958;5.842;2024-02-14T12:25:42;9.77;;;5.43;;
39020;SDS011;25188;51.958;5.842;2024-02-14T12:28:16;10.95;;;6.28;;
39020;SDS011;25188;51.958;5.842;2024-02-14T12:33:13;9.50;;;6.13;;
39020;SDS011;25188;51.958;5.842;2024-02-14T12:35:43;11.45;;;5.72;;
39020;SDS011;25188;51.958;5.842;2024-02-14T12:38:09;9.00;;;4.68;;
39020;SDS011;25188;51.958;5.842;2024-02-14T12:40:36;9.20;;;5.10;;
39020;SDS011;25188;51.958;5.842;2024-02-14T12:43:02;6.93;;;4.55;;
39020;SDS011;25188;51.958;5.842;2024-02-14T12:45:28;7.18;;;4.38;;
39020;SDS011;25188;51.958;5.842;2024-02-14T12:47:54;6.22;;;4.00;;
39020;SDS011;25188;51.958;5.842;2024-02-14T12:50:19;9.50;;;4.05;;
39020;SDS011;25188;51.958;5.842;2024-02-14T12:52:48;6.78;;;4.05;;
39020;SDS011;25188;51.958;5.842;2024-02-14T12:55:14;8.82;;;4.50;;
39020;SDS011;25188;51.958;5.842;2024-02-14T12:57:40;6.10;;;3.92;;
39020;SDS011;25188;51.958;5.842;2024-02-14T13:00:06;8.82;;;4.32;;
39020;SDS011;25188;51.958;5.842;2024-02-14T13:02:34;7.03;;;3.88;;
39020;SDS011;25188;51.958;5.842;2024-02-14T13:05:00;6.20;;;3.58;;
39020;SDS011;25188;51.958;5.842;2024-02-14T13:07:30;6.55;;;3.45;;
39020;SDS011;25188;51.958;5.842;2024-02-14T13:09:56;5.60;;;3.20;;
39020;SDS011;25188;51.958;5.842;2024-02-14T13:12:21;6.28;;;3.55;;
39020;SDS011;25188;51.958;5.842;2024-02-14T13:14:47;5.50;;;3.60;;
39020;SDS011;25188;51.958;5.842;2024-02-14T13:17:13;5.43;;;2.88;;
39020;SDS011;25188;51.958;5.842;2024-02-14T13:19:39;7.28;;;3.35;;
39020;SDS011;25188;51.958;5.842;2024-02-14T13:22:07;6.63;;;3.45;;
39020;SDS011;25188;51.958;5.842;2024-02-14T13:24:34;6.80;;;3.80;;
39020;SDS011;25188;51.958;5.842;2024-02-14T13:26:59;5.70;;;3.13;;
39020;SDS011;25188;51.958;5.842;2024-02-14T13:29:25;7.15;;;3.17;;
39020;SDS011;25188;51.958;5.842;2024-02-14T13:31:51;6.18;;;3.55;;
39020;SDS011;25188;51.958;5.842;2024-02-14T13:34:17;6.05;;;3.50;;
39020;SDS011;25188;51.958;5.842;2024-02-14T13:36:48;6.70;;;3.80;;
39020;SDS011;25188;51.958;5.842;2024-02-14T13:39:14;7.47;;;4.35;;
39020;SDS011;25188;51.958;5.842;2024-02-14T13:41:40;5.72;;;3.78;;
39020;SDS011;25188;51.958;5.842;2024-02-14T13:44:09;7.38;;;3.88;;
39020;SDS011;25188;51.958;5.842;2024-02-14T13:46:35;7.88;;;4.75;;
39020;SDS011;25188;51.958;5.842;2024-02-14T13:49:01;6.65;;;4.40;;
39020;SDS011;25188;51.958;5.842;2024-02-14T13:51:27;8.07;;;4.82;;
39020;SDS011;25188;51.958;5.842;2024-02-14T13:53:53;8.07;;;5.10;;
39020;SDS011;25188;51.958;5.842;2024-02-14T13:56:19;10.50;;;5.20;;
39020;SDS011;25188;51.958;5.842;2024-02-14T13:58:47;9.20;;;5.53;;
39020;SDS011;25188;51.958;5.842;2024-02-14T14:01:14;10.25;;;5.00;;
39020;SDS011;25188;51.958;5.842;2024-02-14T14:03:40;9.75;;;6.38;;
39020;SDS011;25188;51.958;5.842;2024-02-14T14:06:06;10.20;;;5.93;;
39020;SDS011;25188;51.958;5.842;2024-02-14T14:08:35;11.77;;;6.88;;
39020;SDS011;25188;51.958;5.842;2024-02-14T14:11:02;12.38;;;7.68;;
39020;SDS011;25188;51.958;5.842;2024-02-14T14:13:28;9.13;;;5.97;;
39020;SDS011;25188;51.958;5.842;2024-02-14T14:15:56;10.35;;;7.28;;
39020;SDS011;25188;51.958;5.842;2024-02-14T14:18:22;13.25;;;7.82;;
39020;SDS011;25188;51.958;5.842;2024-02-14T14:20:51;11.27;;;7.72;;
39020;SDS011;25188;51.958;5.842;2024-02-14T14:23:17;13.68;;;8.15;;
39020;SDS011;25188;51.958;5.842;2024-02-14T14:25:43;10.88;;;7.72;;
39020;SDS011;25188;51.958;5.842;2024-02-14T14:28:10;13.38;;;8.00;;
39020;SDS011;25188;51.958;5.842;2024-02-14T14:30:36;11.60;;;7.78;;
39020;SDS011;25188;51.958;5.842;2024-02-14T14:33:03;12.57;;;8.98;;